createdAt,value
2022-11-17T00:00:02.328Z,0.00
2022-11-17T00:10:00.138Z,0.00
2022-11-17T00:20:00.244Z,0.00
2022-11-17T00:30:00.157Z,0.00
2022-11-17T00:40:01.057Z,0.00
2022-11-17T00:50:00.191Z,0.00
2022-11-17T01:10:00.966Z,0.00
2022-11-17T01:30:01.039Z,0.00
2022-11-17T01:40:01.658Z,0.00
2022-11-17T01:50:01.203Z,0.00
2022-11-17T02:00:01.055Z,0.00
2022-11-17T02:10:01.026Z,0.00
2022-11-17T02:30:02.588Z,0.00
2022-11-17T02:40:01.397Z,0.00
2022-11-17T02:50:00.139Z,0.00
2022-11-17T03:00:01.009Z,0.00
2022-11-17T03:10:02.540Z,0.00
2022-11-17T03:20:01.334Z,0.00
2022-11-17T03:30:01.072Z,0.00
2022-11-17T03:40:01.092Z,0.00
2022-11-17T03:50:02.294Z,0.00
2022-11-17T04:00:01.088Z,0.00
2022-11-17T04:10:01.240Z,0.00
2022-11-17T04:20:01.324Z,0.00
2022-11-17T04:30:00.988Z,0.00
2022-11-17T04:40:01.265Z,0.00
2022-11-17T04:50:01.480Z,0.00
2022-11-17T05:00:01.457Z,0.00
2022-11-17T05:10:01.011Z,0.00
2022-11-17T05:20:00.256Z,0.00
2022-11-17T05:30:00.134Z,0.00
2022-11-17T05:40:01.148Z,0.00
2022-11-17T05:50:01.756Z,0.00
2022-11-17T06:00:01.153Z,0.23
2022-11-17T06:10:01.041Z,1.47
2022-11-17T06:30:00.157Z,6.67
2022-11-17T06:40:01.874Z,33.33
2022-11-17T06:50:02.195Z,46.67
2022-11-17T07:00:00.146Z,70.00
2022-11-17T07:10:00.172Z,105.00
2022-11-17T07:20:01.333Z,148.33
2022-11-17T07:30:01.036Z,188.33
2022-11-17T07:50:01.189Z,263.33
2022-11-17T08:10:01.261Z,351.67
2022-11-17T08:20:01.034Z,360.00
2022-11-17T08:30:00.135Z,523.33
2022-11-17T08:40:02.638Z,426.67
2022-11-17T08:50:01.335Z,606.67
2022-11-17T09:00:01.613Z,566.67
2022-11-17T09:10:01.067Z,520.00
2022-11-17T09:20:03.051Z,496.67
2022-11-17T09:30:02.853Z,435.00
2022-11-17T09:40:00.179Z,305.00
2022-11-17T09:50:01.033Z,395.00
2022-11-17T10:00:02.280Z,485.00
2022-11-17T10:10:01.465Z,440.00
2022-11-17T10:30:01.282Z,375.00
2022-11-17T10:40:02.038Z,475.00
2022-11-17T10:50:00.164Z,906.67
2022-11-17T11:00:01.969Z,446.67
2022-11-17T11:10:01.441Z,540.00
2022-11-17T11:20:00.166Z,436.67
2022-11-17T11:30:01.593Z,453.33
2022-11-17T11:50:00.145Z,518.33
2022-11-17T12:00:04.286Z,960.42
2022-11-17T12:10:02.008Z,436.67
2022-11-17T12:20:04.764Z,807.50
2022-11-17T12:30:00.159Z,396.67
2022-11-17T12:40:00.980Z,363.33
2022-11-17T12:50:00.146Z,361.67
2022-11-17T13:00:01.361Z,697.92
2022-11-17T13:10:01.441Z,643.75
2022-11-17T13:20:02.802Z,261.67
2022-11-17T13:30:01.520Z,250.00
2022-11-17T13:40:01.288Z,484.17
2022-11-17T13:50:01.332Z,166.67
2022-11-17T14:00:01.271Z,123.33
2022-11-17T14:10:01.481Z,110.00
2022-11-17T14:20:01.542Z,126.67
2022-11-17T14:30:01.048Z,98.33
2022-11-17T14:40:01.235Z,131.25
2022-11-17T14:50:00.139Z,35.00
2022-11-17T15:00:02.956Z,18.33
2022-11-17T15:10:02.860Z,10.00
2022-11-17T15:20:00.158Z,11.88
2022-11-17T15:30:01.080Z,4.30
2022-11-17T15:40:02.332Z,0.79
2022-11-17T15:50:01.118Z,0.11
2022-11-17T16:00:01.308Z,0.00
2022-11-17T16:10:00.129Z,0.00
2022-11-17T16:20:01.370Z,0.00
2022-11-17T16:30:02.223Z,0.00
2022-11-17T16:40:01.280Z,0.00
2022-11-17T16:50:01.247Z,0.00
2022-11-17T17:00:01.330Z,0.00
2022-11-17T17:10:01.250Z,0.00
2022-11-17T17:30:01.042Z,0.00
2022-11-17T17:40:00.976Z,0.00
2022-11-17T17:50:01.280Z,0.00
2022-11-17T18:00:01.520Z,0.00
2022-11-17T18:10:01.074Z,0.00
2022-11-17T18:20:01.308Z,0.00
2022-11-17T18:30:01.840Z,0.00
2022-11-17T18:40:01.176Z,0.00
2022-11-17T18:50:01.214Z,0.00
2022-11-17T19:00:00.152Z,0.00
2022-11-17T19:10:01.389Z,0.00
2022-11-17T19:30:01.089Z,0.00
2022-11-17T19:40:01.528Z,0.00
2022-11-17T19:50:01.675Z,0.00
2022-11-17T20:00:02.000Z,0.00
2022-11-17T20:10:01.267Z,0.00
2022-11-17T20:20:00.188Z,0.00
2022-11-17T20:30:01.332Z,0.00
2022-11-17T20:40:00.962Z,0.00
2022-11-17T20:50:01.493Z,0.00
2022-11-17T21:00:00.148Z,0.00
2022-11-17T21:10:01.210Z,0.00
2022-11-17T21:20:01.613Z,0.00
2022-11-17T21:30:01.000Z,0.00
2022-11-17T21:50:01.530Z,0.00
2022-11-17T22:00:01.002Z,0.00
2022-11-17T22:10:01.997Z,0.00
2022-11-17T22:30:01.262Z,0.00
2022-11-17T22:40:01.243Z,0.00
2022-11-17T22:50:01.246Z,0.00
2022-11-17T23:00:01.331Z,0.00
2022-11-17T23:10:00.135Z,0.00
2022-11-17T23:20:00.179Z,0.00
2022-11-17T23:30:01.934Z,0.00
2022-11-17T23:50:00.139Z,0.00
